createdAt,value
2022-12-20T00:01:52.618Z,51.83
2022-12-20T00:04:20.510Z,51.90
2022-12-20T00:06:48.255Z,52.16
2022-12-20T00:09:15.889Z,51.99
2022-12-20T00:11:43.572Z,52.18
2022-12-20T00:14:11.521Z,52.40
2022-12-20T00:16:39.494Z,52.34
2022-12-20T00:19:07.824Z,52.17
2022-12-20T00:21:36.394Z,51.97
2022-12-20T00:24:06.334Z,52.10
2022-12-20T00:26:36.058Z,52.19
2022-12-20T00:29:05.411Z,51.77
2022-12-20T00:31:33.808Z,52.09
2022-12-20T00:34:02.404Z,52.21
2022-12-20T00:36:32.477Z,51.90
2022-12-20T00:39:01.374Z,52.17
2022-12-20T00:41:33.340Z,51.78
2022-12-20T00:44:04.086Z,52.05
2022-12-20T00:46:34.190Z,52.15
2022-12-20T00:49:02.102Z,52.24
2022-12-20T00:51:32.596Z,51.99
2022-12-20T00:54:00.497Z,52.35
2022-12-20T00:56:28.200Z,52.09
2022-12-20T00:58:59.882Z,52.24
2022-12-20T01:01:31.866Z,52.35
2022-12-20T01:04:00.148Z,52.52
2022-12-20T01:06:29.221Z,52.39
2022-12-20T01:08:58.150Z,52.11
2022-12-20T01:11:34.643Z,52.16
2022-12-20T01:14:11.468Z,52.20
2022-12-20T01:16:47.061Z,52.37
2022-12-20T01:19:18.405Z,52.48
2022-12-20T01:21:46.687Z,52.38
2022-12-20T01:24:19.916Z,52.43
2022-12-20T01:26:47.770Z,52.45
2022-12-20T01:29:16.151Z,52.58
2022-12-20T01:31:44.370Z,52.51
2022-12-20T01:34:12.436Z,52.79
2022-12-20T01:36:41.145Z,52.58
2022-12-20T01:39:15.375Z,52.59
2022-12-20T01:41:45.565Z,52.44
2022-12-20T01:44:19.320Z,52.74
2022-12-20T01:46:49.332Z,52.54
2022-12-20T01:49:22.245Z,52.83
2022-12-20T01:51:55.394Z,52.69
2022-12-20T01:54:31.982Z,52.70
2022-12-20T01:57:12.747Z,52.60
2022-12-20T01:59:44.596Z,52.61
2022-12-20T02:02:13.995Z,52.85
2022-12-20T02:04:42.121Z,52.83
2022-12-20T02:07:24.443Z,52.46
2022-12-20T02:09:53.611Z,52.84
2022-12-20T02:12:25.539Z,52.70
2022-12-20T02:15:11.079Z,52.58
2022-12-20T02:18:11.301Z,52.75
2022-12-20T02:21:31.340Z,52.97
2022-12-20T02:24:26.965Z,53.02
2022-12-20T02:27:17.845Z,52.84
2022-12-20T02:30:12.106Z,52.71
2022-12-20T02:33:05.215Z,52.58
2022-12-20T02:35:36.084Z,52.88
2022-12-20T02:38:27.972Z,52.72
2022-12-20T02:41:07.130Z,52.68
2022-12-20T02:43:56.571Z,53.12
2022-12-20T02:46:26.490Z,52.98
2022-12-20T02:49:00.414Z,52.89
2022-12-20T02:51:30.607Z,52.92
2022-12-20T02:54:00.069Z,52.84
2022-12-20T02:56:31.293Z,52.69
2022-12-20T02:59:23.341Z,52.74
2022-12-20T03:01:56.325Z,52.56
2022-12-20T03:04:32.277Z,52.77
2022-12-20T03:07:04.002Z,52.86
2022-12-20T03:09:33.947Z,53.19
2022-12-20T03:12:01.719Z,53.16
2022-12-20T03:14:31.490Z,53.26
2022-12-20T03:17:02.350Z,52.71
2022-12-20T03:19:30.310Z,52.85
2022-12-20T03:21:59.313Z,52.74
2022-12-20T03:24:27.258Z,52.87
2022-12-20T03:26:55.679Z,52.67
2022-12-20T03:29:25.458Z,52.75
2022-12-20T03:31:54.160Z,52.94
2022-12-20T03:34:21.890Z,52.75
2022-12-20T03:36:50.124Z,52.79
2022-12-20T03:39:17.931Z,53.02
2022-12-20T03:41:46.199Z,52.67
2022-12-20T03:44:18.542Z,52.80
2022-12-20T03:46:46.508Z,52.79
2022-12-20T03:49:14.523Z,52.83
2022-12-20T03:51:47.511Z,52.95
2022-12-20T03:54:15.365Z,52.80
2022-12-20T03:57:07.590Z,52.77
2022-12-20T03:59:35.776Z,52.99
2022-12-20T04:02:05.848Z,52.95
2022-12-20T04:04:34.913Z,52.86
2022-12-20T04:07:02.721Z,53.10
2022-12-20T04:09:31.013Z,53.03
2022-12-20T04:12:06.101Z,53.08
2022-12-20T04:14:37.321Z,53.04
2022-12-20T04:17:05.965Z,53.11
2022-12-20T04:19:34.693Z,53.04
2022-12-20T04:22:06.133Z,53.13
2022-12-20T04:24:54.475Z,53.05
2022-12-20T04:27:28.085Z,53.27
2022-12-20T04:29:57.719Z,52.97
2022-12-20T04:32:25.495Z,53.21
2022-12-20T04:34:53.432Z,53.37
2022-12-20T04:37:21.542Z,53.22
2022-12-20T04:39:55.337Z,53.18
2022-12-20T04:43:01.190Z,53.42
2022-12-20T04:45:29.066Z,53.34
2022-12-20T04:47:57.211Z,53.16
2022-12-20T04:50:33.919Z,53.21
2022-12-20T04:53:20.482Z,53.14
2022-12-20T04:55:50.208Z,53.08
2022-12-20T04:58:18.447Z,53.18
2022-12-20T05:00:46.874Z,53.45
2022-12-20T05:03:27.759Z,53.45
2022-12-20T05:05:56.603Z,53.43
2022-12-20T05:08:25.093Z,53.33
2022-12-20T05:10:54.078Z,53.59
2022-12-20T05:13:22.881Z,53.52
2022-12-20T05:15:56.029Z,53.30
2022-12-20T05:18:27.687Z,53.59
2022-12-20T05:21:27.933Z,53.50
2022-12-20T05:24:14.775Z,53.40
2022-12-20T05:27:00.978Z,53.64
2022-12-20T05:29:28.905Z,53.48
2022-12-20T05:31:56.813Z,53.40
2022-12-20T05:34:24.881Z,53.81
2022-12-20T05:36:54.873Z,53.57
2022-12-20T05:39:25.105Z,53.53
2022-12-20T05:41:55.928Z,53.83
2022-12-20T05:44:26.217Z,53.80
2022-12-20T05:46:57.304Z,53.82
2022-12-20T05:49:29.693Z,53.70
2022-12-20T05:52:01.782Z,53.80
2022-12-20T05:54:30.097Z,53.59
2022-12-20T05:57:06.121Z,53.72
2022-12-20T05:59:38.113Z,53.57
2022-12-20T06:02:10.637Z,53.83
2022-12-20T06:04:38.769Z,53.83
2022-12-20T06:07:14.393Z,54.15
2022-12-20T06:09:43.964Z,53.90
2022-12-20T06:12:15.164Z,54.13
2022-12-20T06:14:43.610Z,54.32
2022-12-20T06:17:13.814Z,54.39
2022-12-20T06:19:41.689Z,54.46
2022-12-20T06:22:11.617Z,54.69
2022-12-20T06:24:56.358Z,54.61
2022-12-20T06:27:28.133Z,54.37
2022-12-20T06:30:09.893Z,54.24
2022-12-20T06:32:56.451Z,54.37
2022-12-20T06:35:24.437Z,54.23
2022-12-20T06:37:55.609Z,54.51
2022-12-20T06:40:23.896Z,54.55
2022-12-20T06:42:51.783Z,54.51
2022-12-20T06:45:22.869Z,54.44
2022-12-20T06:47:50.881Z,54.43
2022-12-20T06:50:18.624Z,54.39
2022-12-20T06:52:46.322Z,54.08
2022-12-20T06:55:14.244Z,54.15
2022-12-20T06:57:43.042Z,54.22
2022-12-20T07:00:12.810Z,54.01
2022-12-20T07:02:40.590Z,54.21
2022-12-20T07:05:09.003Z,54.28
2022-12-20T07:07:44.384Z,54.34
2022-12-20T07:10:12.889Z,54.66
2022-12-20T07:12:47.198Z,54.49
2022-12-20T07:15:16.882Z,54.43
2022-12-20T07:17:45.216Z,54.59
2022-12-20T07:20:14.330Z,54.35
2022-12-20T07:22:42.451Z,54.42
2022-12-20T07:25:11.628Z,54.15
2022-12-20T07:27:39.641Z,54.32
2022-12-20T07:30:08.266Z,54.37
2022-12-20T07:32:36.057Z,54.37
2022-12-20T07:35:03.821Z,54.40
2022-12-20T07:37:31.584Z,54.42
2022-12-20T07:39:59.403Z,54.35
2022-12-20T07:42:29.055Z,54.27
2022-12-20T07:45:03.727Z,54.44
2022-12-20T07:47:31.461Z,54.39
2022-12-20T07:49:59.099Z,54.35
2022-12-20T07:52:29.890Z,54.21
2022-12-20T07:55:01.604Z,54.25
2022-12-20T07:57:44.965Z,54.22
2022-12-20T08:00:13.921Z,54.40
2022-12-20T08:03:16.386Z,54.59
2022-12-20T08:05:48.891Z,54.77
2022-12-20T08:08:17.552Z,54.85
2022-12-20T08:10:46.698Z,54.86
2022-12-20T08:13:15.260Z,54.84
2022-12-20T08:15:43.046Z,54.67
2022-12-20T08:18:10.772Z,54.74
2022-12-20T08:20:38.698Z,54.83
2022-12-20T08:23:06.371Z,54.88
2022-12-20T08:25:41.204Z,54.95
2022-12-20T08:28:09.932Z,54.83
2022-12-20T08:30:38.000Z,54.89
2022-12-20T08:33:06.057Z,54.89
2022-12-20T08:35:34.106Z,54.79
2022-12-20T08:38:01.811Z,54.92
2022-12-20T08:40:29.576Z,54.93
2022-12-20T08:42:58.602Z,54.74
2022-12-20T08:45:26.655Z,54.93
2022-12-20T08:47:55.068Z,54.87
2022-12-20T08:50:22.807Z,54.90
2022-12-20T08:52:50.613Z,54.84
2022-12-20T08:55:22.031Z,54.84
2022-12-20T08:57:52.612Z,54.88
2022-12-20T09:00:21.138Z,54.96
2022-12-20T09:02:50.909Z,54.85
2022-12-20T09:05:18.745Z,54.82
2022-12-20T09:07:47.632Z,54.77
2022-12-20T09:10:15.487Z,54.77
2022-12-20T09:12:43.344Z,54.87
2022-12-20T09:15:11.815Z,55.10
2022-12-20T09:17:39.475Z,55.18
2022-12-20T09:20:08.119Z,55.07
2022-12-20T09:22:35.790Z,55.17
2022-12-20T09:25:03.561Z,55.10
2022-12-20T09:27:31.301Z,55.07
2022-12-20T09:29:59.199Z,55.04
2022-12-20T09:32:26.851Z,54.99
2022-12-20T09:34:54.506Z,54.92
2022-12-20T09:37:22.314Z,54.86
2022-12-20T09:39:51.406Z,54.99
2022-12-20T09:42:25.694Z,55.12
2022-12-20T09:45:03.427Z,54.98
2022-12-20T09:47:34.689Z,55.15
2022-12-20T09:50:05.019Z,55.00
2022-12-20T09:52:51.875Z,54.98
2022-12-20T09:55:43.456Z,55.10
2022-12-20T09:58:41.737Z,54.85
2022-12-20T10:01:25.585Z,55.03
2022-12-20T10:03:56.063Z,55.14
2022-12-20T10:07:14.635Z,55.08
2022-12-20T10:09:58.197Z,55.21
2022-12-20T10:12:46.328Z,55.14
2022-12-20T10:15:26.644Z,55.26
2022-12-20T10:18:06.742Z,54.96
2022-12-20T10:21:08.786Z,54.80
2022-12-20T10:23:58.206Z,55.08
2022-12-20T10:26:26.041Z,55.37
2022-12-20T10:28:54.726Z,54.91
2022-12-20T10:31:23.242Z,54.88
2022-12-20T10:33:51.035Z,54.76
2022-12-20T10:36:28.813Z,54.57
2022-12-20T10:39:09.262Z,54.55
2022-12-20T10:41:57.112Z,54.59
2022-12-20T10:44:44.865Z,54.80
2022-12-20T10:47:35.879Z,54.55
2022-12-20T10:50:21.536Z,54.62
2022-12-20T10:53:11.295Z,54.57
2022-12-20T10:55:42.473Z,54.37
2022-12-20T10:58:35.405Z,54.48
2022-12-20T11:01:20.062Z,54.50
2022-12-20T11:04:05.009Z,54.20
2022-12-20T11:06:38.891Z,54.47
2022-12-20T11:09:52.153Z,54.09
2022-12-20T11:12:20.221Z,54.46
2022-12-20T11:14:49.380Z,54.14
2022-12-20T11:17:48.819Z,54.18
2022-12-20T11:20:26.508Z,54.09
2022-12-20T11:23:16.059Z,54.15
2022-12-20T11:26:18.563Z,54.36
2022-12-20T11:29:03.926Z,54.60
2022-12-20T11:32:08.273Z,54.42
2022-12-20T11:35:07.871Z,54.35
2022-12-20T11:38:05.557Z,54.35
2022-12-20T11:41:14.278Z,54.45
2022-12-20T11:44:25.129Z,54.48
2022-12-20T11:47:39.801Z,54.33
2022-12-20T11:50:51.327Z,54.40
2022-12-20T11:53:26.785Z,54.47
2022-12-20T11:56:02.103Z,54.61
2022-12-20T11:58:42.386Z,54.33
2022-12-20T12:01:16.524Z,54.40
2022-12-20T12:03:57.994Z,54.36
2022-12-20T12:06:42.695Z,54.04
2022-12-20T12:09:23.473Z,54.29
2022-12-20T12:12:24.239Z,54.27
2022-12-20T12:15:17.430Z,54.10
2022-12-20T12:18:05.830Z,53.98
2022-12-20T12:21:08.519Z,54.00
2022-12-20T12:24:18.306Z,54.12
2022-12-20T12:26:46.359Z,54.10
2022-12-20T12:29:20.887Z,54.11
2022-12-20T12:32:34.930Z,53.96
2022-12-20T12:35:41.066Z,54.12
2022-12-20T12:38:33.833Z,53.98
2022-12-20T12:41:27.574Z,53.70
2022-12-20T12:44:05.440Z,53.97
2022-12-20T12:46:37.516Z,53.89
2022-12-20T12:49:17.609Z,53.73
2022-12-20T12:51:57.303Z,53.70
2022-12-20T12:54:31.199Z,53.61
2022-12-20T12:57:16.389Z,53.65
2022-12-20T12:59:50.549Z,53.86
2022-12-20T13:02:20.654Z,53.71
2022-12-20T13:05:09.006Z,53.46
2022-12-20T13:07:37.035Z,53.81
2022-12-20T13:10:20.195Z,53.41
2022-12-20T13:13:01.402Z,53.45
2022-12-20T13:15:30.338Z,53.65
2022-12-20T13:18:21.770Z,53.54
2022-12-20T13:21:31.157Z,53.64
2022-12-20T13:24:36.117Z,53.57
2022-12-20T13:27:35.630Z,53.37
2022-12-20T13:30:12.004Z,53.30
2022-12-20T13:32:49.069Z,53.31
2022-12-20T13:35:26.834Z,53.31
2022-12-20T13:38:24.886Z,53.33
2022-12-20T13:41:00.252Z,53.28
2022-12-20T13:43:44.739Z,53.60
2022-12-20T13:46:32.803Z,53.23
2022-12-20T13:49:04.347Z,53.61
2022-12-20T13:51:32.305Z,53.36
2022-12-20T13:54:07.874Z,53.38
2022-12-20T13:56:41.738Z,53.32
2022-12-20T13:59:31.704Z,53.20
2022-12-20T14:02:11.073Z,53.37
2022-12-20T14:04:46.529Z,53.37
2022-12-20T14:07:18.158Z,53.24
2022-12-20T14:09:55.008Z,53.55
2022-12-20T14:12:28.614Z,53.29
2022-12-20T14:14:59.809Z,53.49
2022-12-20T14:17:33.258Z,53.26
2022-12-20T14:20:15.996Z,53.03
2022-12-20T14:23:04.121Z,53.14
2022-12-20T14:25:44.650Z,53.14
2022-12-20T14:28:58.239Z,52.91
2022-12-20T14:31:41.060Z,53.15
2022-12-20T14:34:12.024Z,53.38
2022-12-20T14:36:50.669Z,53.20
2022-12-20T14:39:21.393Z,53.21
2022-12-20T14:42:00.193Z,53.02
2022-12-20T14:44:31.820Z,52.99
2022-12-20T14:47:34.135Z,53.25
2022-12-20T14:50:34.132Z,53.20
2022-12-20T14:53:03.025Z,53.48
2022-12-20T14:55:39.446Z,53.46
2022-12-20T14:58:23.923Z,53.05
2022-12-20T15:01:02.345Z,53.33
2022-12-20T15:03:30.598Z,53.36
2022-12-20T15:06:00.562Z,53.51
2022-12-20T15:08:33.124Z,53.53
2022-12-20T15:11:10.376Z,53.42
2022-12-20T15:13:46.744Z,53.52
2022-12-20T15:16:18.643Z,53.68
2022-12-20T15:18:53.761Z,53.89
2022-12-20T15:21:37.415Z,53.91
2022-12-20T15:24:11.750Z,53.62
2022-12-20T15:26:39.752Z,53.49
2022-12-20T15:29:15.118Z,53.58
2022-12-20T15:31:44.300Z,53.41
2022-12-20T15:34:38.466Z,53.36
2022-12-20T15:37:06.823Z,53.58
2022-12-20T15:39:34.748Z,53.41
2022-12-20T15:42:04.973Z,53.28
2022-12-20T15:44:35.981Z,53.25
2022-12-20T15:47:03.870Z,53.61
2022-12-20T15:49:34.444Z,53.27
2022-12-20T15:52:02.353Z,53.50
2022-12-20T15:54:32.786Z,53.59
2022-12-20T15:57:04.560Z,53.41
2022-12-20T15:59:59.085Z,53.83
2022-12-20T16:02:26.924Z,53.69
2022-12-20T16:04:55.637Z,53.70
2022-12-20T16:07:24.360Z,54.05
2022-12-20T16:09:52.645Z,54.02
2022-12-20T16:12:29.486Z,53.81
2022-12-20T16:14:57.665Z,54.22
2022-12-20T16:17:25.630Z,54.10
2022-12-20T16:19:53.585Z,54.24
2022-12-20T16:22:23.491Z,54.55
2022-12-20T16:24:52.063Z,54.34
2022-12-20T16:27:20.489Z,54.50
2022-12-20T16:29:48.576Z,54.40
2022-12-20T16:32:21.754Z,54.19
2022-12-20T16:34:50.083Z,54.00
2022-12-20T16:37:18.088Z,53.85
2022-12-20T16:39:45.803Z,53.94
2022-12-20T16:42:33.473Z,54.17
2022-12-20T16:45:01.504Z,53.88
2022-12-20T16:47:29.455Z,53.89
2022-12-20T16:49:57.153Z,53.70
2022-12-20T16:52:25.099Z,53.76
2022-12-20T16:54:53.901Z,53.74
2022-12-20T16:57:22.032Z,53.85
2022-12-20T16:59:49.870Z,53.79
2022-12-20T17:02:29.193Z,53.46
2022-12-20T17:04:57.568Z,53.80
2022-12-20T17:07:27.522Z,53.79
2022-12-20T17:09:55.216Z,53.76
2022-12-20T17:12:23.522Z,53.74
2022-12-20T17:14:51.340Z,53.99
2022-12-20T17:17:19.204Z,53.85
2022-12-20T17:19:46.969Z,53.62
2022-12-20T17:25:02.591Z,53.51
2022-12-20T17:27:30.503Z,53.48
2022-12-20T17:29:58.359Z,53.60
2022-12-20T17:32:26.406Z,53.77
2022-12-20T17:34:54.540Z,53.79
2022-12-20T17:37:22.697Z,53.64
2022-12-20T17:39:50.438Z,53.56
2022-12-20T17:42:18.236Z,53.87
2022-12-20T17:44:49.186Z,53.95
2022-12-20T17:47:17.371Z,53.61
2022-12-20T17:49:45.254Z,53.72
2022-12-20T17:52:16.306Z,53.89
2022-12-20T17:54:44.075Z,53.83
2022-12-20T17:57:16.457Z,53.94
2022-12-20T17:59:44.986Z,53.88
2022-12-20T18:02:22.568Z,53.71
2022-12-20T18:04:51.598Z,53.69
2022-12-20T18:07:19.690Z,53.67
2022-12-20T18:09:49.117Z,53.80
2022-12-20T18:12:17.855Z,54.07
2022-12-20T18:14:47.666Z,53.74
2022-12-20T18:17:15.662Z,53.87
2022-12-20T18:19:43.926Z,54.09
2022-12-20T18:22:12.214Z,53.84
2022-12-20T18:24:40.598Z,54.08
2022-12-20T18:27:08.382Z,53.96
2022-12-20T18:29:36.368Z,53.89
2022-12-20T18:32:04.904Z,54.10
2022-12-20T18:34:33.011Z,54.00
2022-12-20T18:37:01.953Z,53.99
2022-12-20T18:39:29.909Z,53.86
2022-12-20T18:41:57.878Z,54.12
2022-12-20T18:44:25.689Z,54.24
2022-12-20T18:46:54.690Z,54.05
2022-12-20T18:49:23.690Z,54.00
2022-12-20T18:51:51.506Z,54.07
2022-12-20T18:54:19.297Z,53.99
2022-12-20T18:56:49.015Z,54.01
2022-12-20T18:59:16.988Z,54.15
2022-12-20T19:01:44.829Z,54.23
2022-12-20T19:04:14.288Z,54.23
2022-12-20T19:06:43.799Z,53.98
2022-12-20T19:09:13.881Z,54.07
2022-12-20T19:11:43.135Z,53.92
2022-12-20T19:14:12.834Z,54.19
2022-12-20T19:16:41.069Z,53.81
2022-12-20T19:19:10.002Z,53.88
2022-12-20T19:21:42.877Z,54.15
2022-12-20T19:24:11.709Z,53.99
2022-12-20T19:26:40.465Z,53.91
2022-12-20T19:29:09.367Z,53.96
2022-12-20T19:31:38.277Z,53.98
2022-12-20T19:34:10.669Z,54.13
2022-12-20T19:36:45.091Z,54.08
2022-12-20T19:39:23.050Z,53.99
2022-12-20T19:42:22.212Z,54.06
2022-12-20T19:44:40.691Z,54.23
2022-12-20T19:47:09.132Z,54.06
2022-12-20T19:49:40.044Z,54.22
2022-12-20T19:52:08.086Z,54.03
2022-12-20T19:54:36.151Z,54.00
2022-12-20T19:57:04.269Z,53.88
2022-12-20T19:59:32.411Z,54.21
2022-12-20T20:02:00.659Z,54.20
2022-12-20T20:04:29.427Z,53.96
2022-12-20T20:06:57.991Z,53.74
2022-12-20T20:09:25.896Z,53.63
2022-12-20T20:11:54.302Z,53.54
2022-12-20T20:14:22.535Z,53.86
2022-12-20T20:16:50.983Z,53.66
2022-12-20T20:19:20.522Z,53.66
2022-12-20T20:21:49.664Z,53.69
2022-12-20T20:24:18.058Z,53.66
2022-12-20T20:26:46.214Z,53.64
2022-12-20T20:29:14.393Z,53.75
2022-12-20T20:31:42.637Z,53.83
2022-12-20T20:34:10.952Z,54.08
2022-12-20T20:36:39.607Z,54.07
2022-12-20T20:39:08.111Z,53.95
2022-12-20T20:41:36.229Z,54.16
2022-12-20T20:44:04.539Z,53.99
2022-12-20T20:46:33.063Z,53.94
2022-12-20T20:49:01.407Z,54.28
2022-12-20T20:51:29.639Z,54.43
2022-12-20T20:53:58.462Z,54.26
2022-12-20T20:56:26.590Z,54.19
2022-12-20T20:59:02.891Z,54.35
2022-12-20T21:01:34.392Z,54.31
2022-12-20T21:04:02.960Z,54.39
2022-12-20T21:06:39.955Z,54.19
2022-12-20T21:09:09.563Z,54.57
2022-12-20T21:11:38.000Z,54.25
2022-12-20T21:14:06.471Z,54.57
2022-12-20T21:16:34.682Z,54.55
2022-12-20T21:19:03.160Z,54.61
2022-12-20T21:21:31.129Z,54.56
2022-12-20T21:23:59.209Z,54.51
2022-12-20T21:26:27.453Z,54.76
2022-12-20T21:29:01.448Z,54.86
2022-12-20T21:31:30.872Z,54.80
2022-12-20T21:33:59.423Z,54.97
2022-12-20T21:36:27.542Z,54.97
2022-12-20T21:38:57.824Z,54.97
2022-12-20T21:41:28.662Z,55.05
2022-12-20T21:43:59.064Z,54.85
2022-12-20T21:46:29.575Z,54.98
2022-12-20T21:48:58.779Z,55.31
2022-12-20T21:51:29.002Z,55.29
2022-12-20T21:54:02.424Z,55.20
2022-12-20T21:56:33.099Z,55.13
2022-12-20T21:59:02.486Z,55.14
2022-12-20T22:01:31.747Z,55.22
2022-12-20T22:04:05.700Z,55.07
2022-12-20T22:06:36.782Z,55.15
2022-12-20T22:09:09.243Z,55.18
2022-12-20T22:11:38.107Z,55.05
2022-12-20T22:14:06.849Z,55.32
2022-12-20T22:16:35.382Z,55.04
2022-12-20T22:19:04.289Z,55.00
2022-12-20T22:21:34.312Z,54.99
2022-12-20T22:24:03.054Z,55.33
2022-12-20T22:26:33.601Z,55.32
2022-12-20T22:29:07.039Z,55.27
2022-12-20T22:31:36.653Z,55.53
2022-12-20T22:34:05.058Z,55.53
2022-12-20T22:36:33.159Z,55.29
2022-12-20T22:39:01.254Z,55.60
2022-12-20T22:41:34.492Z,55.35
2022-12-20T22:44:02.981Z,55.28
2022-12-20T22:46:31.909Z,55.56
2022-12-20T22:48:59.878Z,55.47
2022-12-20T22:51:30.931Z,55.56
2022-12-20T22:54:00.078Z,55.62
2022-12-20T22:56:28.508Z,55.42
2022-12-20T22:58:57.490Z,55.44
2022-12-20T23:01:26.253Z,55.58
2022-12-20T23:03:54.426Z,55.72
2022-12-20T23:06:23.383Z,55.79
2022-12-20T23:08:51.474Z,55.87
2022-12-20T23:11:45.171Z,55.90
2022-12-20T23:14:40.600Z,55.85
2022-12-20T23:17:10.998Z,56.13
2022-12-20T23:19:58.190Z,56.23
2022-12-20T23:22:39.062Z,56.18
2022-12-20T23:25:15.597Z,55.88
2022-12-20T23:27:46.486Z,56.27
2022-12-20T23:30:20.392Z,55.95
2022-12-20T23:32:49.495Z,56.08
2022-12-20T23:35:26.118Z,55.77
2022-12-20T23:37:58.950Z,56.17
2022-12-20T23:40:26.804Z,56.14
2022-12-20T23:42:55.437Z,55.98
2022-12-20T23:45:23.202Z,56.03
2022-12-20T23:47:51.945Z,55.87
2022-12-20T23:50:20.350Z,56.19
2022-12-20T23:52:50.320Z,56.01
2022-12-20T23:55:18.568Z,55.92
2022-12-20T23:57:46.562Z,56.18
